Time;durP1;ratioP1;P1;durP2;ratioP2;P2;SDS_P1;SDS_P2;PMS_P1;PMS_P2;Temp;Humidity;BMP_temperature;BMP_pressure;BME280_temperature;BME280_humidity;BME280_pressure;Samples;Min_cycle;Max_cycle;Signal;HPM_P1;HPM_P2
2023/03/16 00:08:57;;;;;;;11.77;3.87;;;2.30;99.90;;;;;;6156118;23;20104;-83
2023/03/16 00:11:29;;;;;;;13.70;4.03;;;2.40;99.90;;;;;;6128709;23;20021;-83
2023/03/16 00:14:04;;;;;;;11.47;3.80;;;2.20;99.90;;;;;;6130712;23;20091;-83
2023/03/16 00:16:35;;;;;;;13.20;4.00;;;3.50;99.90;;;;;;6158471;23;20022;-84
2023/03/16 00:19:07;;;;;;;12.27;4.57;;;2.00;99.90;;;;;;6178793;23;20017;-83
2023/03/16 00:21:36;;;;;;;15.20;4.10;;;2.00;99.90;;;;;;6178446;23;20021;-82
2023/03/16 00:24:07;;;;;;;12.00;4.17;;;1.60;99.90;;;;;;6135226;23;20049;-83
2023/03/16 00:26:41;;;;;;;13.77;4.10;;;2.30;99.90;;;;;;6132227;23;20097;-83
2023/03/16 00:29:12;;;;;;;12.93;3.90;;;1.90;99.90;;;;;;6155751;23;20442;-83
2023/03/16 00:31:58;;;;;;;13.70;3.97;;;3.60;99.90;;;;;;6155129;23;20022;-83
2023/03/16 00:34:41;;;;;;;12.10;3.97;;;2.30;99.90;;;;;;6156288;23;20014;-83
2023/03/16 00:37:17;;;;;;;11.98;4.03;;;2.30;99.90;;;;;;6129106;23;20026;-83
2023/03/16 00:39:58;;;;;;;11.30;3.57;;;4.10;99.90;;;;;;6155050;23;20088;-83
2023/03/16 00:42:33;;;;;;;11.70;3.57;;;1.90;99.90;;;;;;6129451;23;20024;-83
2023/03/16 00:45:02;;;;;;;13.30;4.13;;;2.10;99.90;;;;;;6154960;23;20563;-83
2023/03/16 00:47:42;;;;;;;12.20;3.90;;;2.50;99.90;;;;;;6155330;23;20025;-83
2023/03/16 01:02:28;;;;;;;10.83;3.60;;;2.30;99.90;;;;;;6162854;23;20025;-83
2023/03/16 01:08:01;;;;;;;9.03;3.43;;;4.40;99.90;;;;;;6139490;23;20017;-84
2023/03/16 01:10:29;;;;;;;11.70;3.97;;;2.90;99.90;;;;;;6155442;23;20088;-83
2023/03/16 01:19:32;;;;;;;11.40;3.50;;;2.30;99.90;;;;;;6164232;23;20036;-83
2023/03/16 01:31:38;;;;;;;9.50;3.27;;;2.20;99.90;;;;;;6126304;23;20052;-83
2023/03/16 01:34:17;;;;;;;11.23;3.90;;;1.40;99.90;;;;;;6099248;23;20017;-84
2023/03/16 01:42:19;;;;;;;12.97;3.60;;;2.20;99.90;;;;;;6162849;23;20252;-83
2023/03/16 01:44:54;;;;;;;10.43;3.80;;;2.10;99.90;;;;;;6154850;23;20025;-84
2023/03/16 01:47:44;;;;;;;10.75;3.63;;;2.10;99.90;;;;;;6064410;23;20054;-84
2023/03/16 01:50:28;;;;;;;11.40;3.63;;;1.70;99.90;;;;;;6039887;23;20015;-83
2023/03/16 02:09:41;;;;;;;9.77;3.60;;;3.30;99.90;;;;;;6127763;23;20022;-83
2023/03/16 02:15:56;;;;;;;12.37;3.73;;;3.60;99.90;;;;;;6154412;23;20048;-84
2023/03/16 02:18:37;;;;;;;9.67;4.00;;;3.20;99.90;;;;;;6128120;23;20096;-83
2023/03/16 02:21:40;;;;;;;11.70;3.60;;;2.40;99.90;;;;;;6129443;23;20014;-84
2023/03/16 02:24:08;;;;;;;11.67;3.80;;;2.50;99.90;;;;;;6154359;23;20323;-84
2023/03/16 02:27:24;;;;;;;10.67;4.00;;;2.10;99.90;;;;;;6162544;23;20018;-84
2023/03/16 02:30:22;;;;;;;;;;;;;;;;;;;;;
2023/03/16 02:33:00;;;;;;;11.20;3.80;;;2.30;99.90;;;;;;6012788;23;20346;-84
2023/03/16 02:35:30;;;;;;;10.53;3.80;;;1.90;99.90;;;;;;6011527;23;20091;-84
2023/03/16 02:38:09;;;;;;;12.53;4.00;;;2.10;99.90;;;;;;6152309;23;20021;-84
2023/03/16 02:40:42;;;;;;;8.87;3.60;;;2.20;99.90;;;;;;6128944;23;20060;-84
2023/03/16 02:43:32;;;;;;;13.67;4.23;;;2.00;99.90;;;;;;6129003;23;20013;-84
2023/03/16 02:46:46;;;;;;;;;;;;;;;;;;;;;
2023/03/16 02:49:54;;;;;;;10.32;3.83;;;2.70;99.90;;;;;;6103899;23;20088;-84
2023/03/16 02:52:36;;;;;;;11.53;4.40;;;2.30;99.90;;;;;;6153940;23;20028;-84
2023/03/16 02:55:31;;;;;;;12.33;4.23;;;2.10;99.90;;;;;;6153856;23;20346;31
2023/03/16 02:58:16;;;;;;;;;;;;;;;;;;;;;
2023/03/16 03:04:33;;;;;;;12.60;4.20;;;3.80;99.90;;;;;;6095712;23;20033;-84
2023/03/16 03:07:48;;;;;;;10.17;4.10;;;1.70;99.90;;;;;;6008730;23;20063;-83
2023/03/16 03:10:31;;;;;;;11.03;4.30;;;3.10;99.90;;;;;;6009784;23;20026;-84
2023/03/16 03:13:42;;;;;;;;;;;;;;;;;;;;;
2023/03/16 03:16:30;;;;;;;10.07;3.80;;;2.00;99.90;;;;;;6006359;23;20022;-84
2023/03/16 03:18:59;;;;;;;9.47;3.93;;;3.50;99.90;;;;;;6091740;23;20018;-84
2023/03/16 03:21:37;;;;;;;13.20;4.37;;;2.80;99.90;;;;;;6096853;23;20022;-83
2023/03/16 03:27:41;;;;;;;12.40;4.53;;;2.70;99.90;;;;;;6073974;23;20026;-84
2023/03/16 03:37:53;;;;;;;12.97;4.10;;;2.50;99.90;;;;;;6163472;23;20029;-84
2023/03/16 03:40:44;;;;;;;9.80;4.40;;;2.30;99.90;;;;;;6156276;23;20080;-84
2023/03/16 03:54:50;;;;;;;10.50;4.07;;;2.10;99.90;;;;;;6155032;23;20071;-85
2023/03/16 03:57:21;;;;;;;10.97;4.10;;;2.10;99.90;;;;;;6134923;23;20029;-84
2023/03/16 03:59:53;;;;;;;11.57;4.10;;;2.80;99.90;;;;;;6158072;23;20173;-84
2023/03/16 04:02:44;;;;;;;10.17;3.90;;;4.00;99.90;;;;;;6128996;23;20399;-84
2023/03/16 04:05:15;;;;;;;10.70;4.20;;;2.30;99.90;;;;;;6077150;23;20022;-84
2023/03/16 04:07:56;;;;;;;12.37;4.10;;;2.50;99.90;;;;;;6071014;23;20070;-84
2023/03/16 04:10:28;;;;;;;14.20;4.30;;;3.80;99.90;;;;;;6094266;23;20089;-84
2023/03/16 04:12:58;;;;;;;10.13;4.27;;;2.80;99.90;;;;;;6094898;23;20026;-84
2023/03/16 04:15:45;;;;;;;11.50;3.97;;;2.60;99.90;;;;;;6128998;23;20080;-85
2023/03/16 04:27:52;;;;;;;13.30;4.30;;;3.40;99.90;;;;;;6093222;23;20085;-85
2023/03/16 04:30:42;;;;;;;11.23;4.43;;;2.50;99.90;;;;;;6142227;23;20021;-85
2023/03/16 04:33:31;;;;;;;10.97;4.30;;;2.80;99.90;;;;;;6156113;23;20067;-85
2023/03/16 04:50:06;;;;;;;12.10;4.70;;;2.70;99.90;;;;;;6152726;23;20084;-85
2023/03/16 04:52:38;;;;;;;12.20;4.10;;;2.80;99.90;;;;;;6128097;23;20025;-85
2023/03/16 04:57:58;;;;;;;10.57;4.30;;;2.70;99.90;;;;;;6153622;23;20029;-85
2023/03/16 05:00:54;;;;;;;11.33;4.40;;;4.30;99.90;;;;;;6128395;23;20028;-84
2023/03/16 05:03:38;;;;;;;;;;;;;;;;;;;;;
2023/03/16 05:06:55;;;;;;;11.13;4.30;;;2.10;99.90;;;;;;6153176;23;20346;-85
2023/03/16 05:09:24;;;;;;;10.90;4.00;;;4.20;99.90;;;;;;6069775;23;20117;-85
2023/03/16 05:12:09;;;;;;;11.33;4.67;;;3.60;99.90;;;;;;6069933;23;20022;-85
2023/03/16 05:15:24;;;;;;;10.67;4.33;;;2.70;99.90;;;;;;6069663;23;20026;-87
2023/03/16 05:26:56;;;;;;;11.40;4.40;;;3.00;99.90;;;;;;6124005;23;20026;-88
2023/03/16 05:29:31;;;;;;;13.00;4.60;;;2.60;99.90;;;;;;6105299;23;20018;-86
2023/03/16 05:36:05;;;;;;;;;;;;;;;;;;;;;
2023/03/16 05:39:25;;;;;;;11.33;4.57;;;3.60;99.90;;;;;;6036764;23;20059;-83
2023/03/16 05:53:58;;;;;;;9.77;4.43;;;3.80;99.90;;;;;;5898762;24;20020;-86
2023/03/16 05:56:42;;;;;;;11.57;4.80;;;3.00;99.90;;;;;;5876248;24;20097;-86
2023/03/16 05:59:54;;;;;;;10.70;4.20;;;2.50;99.90;;;;;;5993479;23;20399;-88
2023/03/16 06:30:44;;;;;;;11.47;4.23;;;3.70;99.90;;;;;;6107748;23;20111;-87
2023/03/16 06:38:03;;;;;;;10.13;4.43;;;3.10;99.90;;;;;;6001469;23;20086;-87
2023/03/16 06:40:37;;;;;;;11.90;4.63;;;3.70;99.90;;;;;;5930447;24;20095;-85
2023/03/16 06:43:03;;;;;;;11.23;4.10;;;4.50;99.90;;;;;;5929900;24;20123;-84
2023/03/16 06:45:34;;;;;;;12.20;4.57;;;3.40;99.90;;;;;;5928649;24;20071;-85
2023/03/16 06:48:00;;;;;;;10.67;4.60;;;3.10;99.90;;;;;;5990281;23;20078;-86
2023/03/16 06:50:46;;;;;;;10.77;4.33;;;4.70;99.90;;;;;;6082820;23;20093;-86
2023/03/16 06:53:15;;;;;;;11.63;4.10;;;2.50;99.90;;;;;;6094314;23;20104;-86
2023/03/16 06:56:01;;;;;;;12.10;4.00;;;4.40;99.90;;;;;;6127315;23;20442;-86
2023/03/16 06:58:55;;;;;;;10.00;4.10;;;3.70;99.90;;;;;;6146949;23;20031;-86
2023/03/16 07:01:54;;;;;;;8.70;3.67;;;3.60;99.90;;;;;;6219811;23;20083;-86
2023/03/16 07:04:20;;;;;;;10.40;4.10;;;2.20;99.90;;;;;;6190461;23;20016;-85
2023/03/16 07:06:53;;;;;;;11.93;4.20;;;4.30;99.90;;;;;;6225842;23;20024;-85
2023/03/16 07:09:20;;;;;;;12.25;4.55;;;4.60;99.90;;;;;;6190991;23;20013;-85
2023/03/16 07:11:47;;;;;;;9.00;3.90;;;4.10;99.90;;;;;;6188797;23;20021;-84
2023/03/16 07:14:13;;;;;;;11.33;4.20;;;;;;;;;;6217209;23;20024;-84
2023/03/16 07:16:39;;;;;;;11.07;4.33;;;3.70;99.90;;;;;;6216903;23;20017;-84
2023/03/16 07:19:14;;;;;;;11.10;4.33;;;3.70;99.90;;;;;;6216070;23;20437;-84
2023/03/16 07:21:40;;;;;;;9.67;4.50;;;2.60;99.90;;;;;;6177747;23;20354;-84
2023/03/16 07:24:31;;;;;;;9.83;3.90;;;3.40;99.90;;;;;;6156680;23;20452;-84
2023/03/16 07:27:35;;;;;;;12.50;4.27;;;3.80;99.90;;;;;;6128600;23;20358;-85
2023/03/16 07:30:27;;;;;;;9.97;4.17;;;3.50;99.90;;;;;;6120919;23;20015;-85
2023/03/16 07:35:37;;;;;;;13.23;4.20;;;3.90;99.90;;;;;;6156820;23;20025;-85
2023/03/16 07:52:27;;;;;;;9.27;4.00;;;3.80;99.90;;;;;;6156530;23;20333;-86
2023/03/16 07:55:13;;;;;;;10.50;4.23;;;3.80;99.90;;;;;;6156174;23;20029;-85
2023/03/16 07:57:40;;;;;;;9.90;3.90;;;4.50;99.90;;;;;;6123137;23;20022;-85
2023/03/16 08:03:18;;;;;;;10.43;4.30;;;4.40;99.90;;;;;;5985590;23;20028;-85
2023/03/16 08:05:44;;;;;;;12.17;4.23;;;6.00;99.90;;;;;;6107480;23;20092;-85
2023/03/16 08:22:05;;;;;;;12.10;4.70;;;5.70;99.90;;;;;;6046778;23;20064;-86
2023/03/16 08:24:33;;;;;;;10.17;3.93;;;4.70;99.90;;;;;;6157500;23;20017;-85
2023/03/16 08:27:37;;;;;;;10.00;4.27;;;5.90;99.90;;;;;;6163364;23;20067;-86
2023/03/16 08:30:35;;;;;;;10.30;4.23;;;5.20;99.90;;;;;;6126378;23;20474;-85
2023/03/16 08:33:19;;;;;;;10.83;4.50;;;4.30;99.90;;;;;;6137717;23;20017;-86
2023/03/16 08:35:46;;;;;;;10.17;4.30;;;4.90;99.90;;;;;;6159184;23;20342;-85
2023/03/16 08:38:35;;;;;;;11.33;4.20;;;5.00;99.90;;;;;;6129339;23;20458;-87
2023/03/16 08:41:16;;;;;;;11.57;4.37;;;5.40;99.90;;;;;;6156739;23;20025;-86
2023/03/16 08:44:13;;;;;;;10.77;4.30;;;5.10;99.90;;;;;;6127542;23;20036;-87
2023/03/16 08:46:39;;;;;;;10.87;4.17;;;5.50;99.90;;;;;;6129850;23;20336;-87
2023/03/16 09:04:55;;;;;;;12.07;5.00;;;5.30;99.90;;;;;;6035689;23;20142;-87
2023/03/16 09:07:35;;;;;;;11.23;4.70;;;6.20;99.90;;;;;;6036785;23;20177;-85
2023/03/16 09:10:04;;;;;;;11.00;4.30;;;5.40;99.90;;;;;;6120094;23;20097;-85
2023/03/16 09:12:33;;;;;;;11.40;4.73;;;5.40;99.90;;;;;;6100226;23;20022;-85
2023/03/16 09:15:25;;;;;;;12.47;4.73;;;6.60;99.90;;;;;;6142032;23;20483;-86
2023/03/16 09:18:15;;;;;;;12.03;5.13;;;5.60;99.90;;;;;;6156376;23;20024;-84
2023/03/16 09:20:41;;;;;;;12.60;4.63;;;6.10;99.90;;;;;;6150968;23;20006;-85
2023/03/16 09:23:07;;;;;;;11.67;5.00;;;6.90;99.90;;;;;;6175994;23;20053;-85
2023/03/16 09:29:15;;;;;;;12.47;5.23;;;5.30;99.90;;;;;;6155512;23;20018;-86
2023/03/16 09:31:41;;;;;;;11.40;5.00;;;6.00;99.90;;;;;;6129740;23;20021;-86
2023/03/16 09:34:08;;;;;;;12.20;4.97;;;5.50;99.90;;;;;;6156006;23;20037;-86
2023/03/16 09:36:34;;;;;;;12.57;4.77;;;5.40;99.90;;;;;;6156938;23;20015;-86
2023/03/16 09:39:00;;;;;;;11.53;5.13;;;5.40;99.90;;;;;;6156917;23;20386;-86
2023/03/16 09:41:32;;;;;;;11.80;5.10;;;6.90;99.90;;;;;;6128660;23;20014;-86
2023/03/16 09:44:16;;;;;;;12.80;5.33;;;5.50;99.90;;;;;;6129943;23;20017;-87
2023/03/16 09:46:50;;;;;;;12.40;4.90;;;5.50;99.90;;;;;;6127686;23;20017;-86
2023/03/16 09:49:24;;;;;;;14.10;5.35;;;5.40;99.90;;;;;;6153798;23;20021;-85
2023/03/16 09:52:35;;;;;;;11.90;5.23;;;7.10;99.90;;;;;;6127045;23;20029;-88
2023/03/16 09:55:36;;;;;;;9.73;4.70;;;5.70;99.90;;;;;;6114771;23;20018;-88
2023/03/16 09:58:35;;;;;;;11.90;5.17;;;6.10;99.90;;;;;;6119391;23;20021;-90
2023/03/16 10:04:27;;;;;;;13.00;5.80;;;6.40;99.90;;;;;;6134992;23;20034;-88
2023/03/16 10:07:28;;;;;;;10.80;5.47;;;5.90;99.90;;;;;;6131707;23;20025;-90
2023/03/16 10:10:09;;;;;;;12.27;5.40;;;5.90;99.90;;;;;;6135845;23;20124;-89
2023/03/16 10:12:40;;;;;;;12.47;5.43;;;5.90;99.90;;;;;;6132739;23;20458;-88
2023/03/16 10:21:40;;;;;;;12.67;5.50;;;5.30;99.90;;;;;;6132514;23;20026;-85
2023/03/16 10:25:13;;;;;;;13.87;5.40;;;5.10;99.90;;;;;;6106165;23;20462;-85
2023/03/16 10:28:15;;;;;;;11.10;5.20;;;5.30;99.90;;;;;;5982960;23;20020;-85
2023/03/16 10:34:59;;;;;;;11.30;5.50;;;5.90;99.90;;;;;;6158479;23;20041;-85
2023/03/16 10:37:42;;;;;;;11.60;5.03;;;5.10;99.90;;;;;;6157880;23;20021;-87
2023/03/16 10:44:40;;;;;;;15.13;5.43;;;5.70;99.90;;;;;;6134972;23;20108;-89
2023/03/16 10:47:26;;;;;;;;;;;5.40;99.90;;;;;;6132926;23;20454;-87
2023/03/16 10:56:41;;;;;;;11.93;5.23;;;5.40;99.90;;;;;;6157526;23;20104;-84
2023/03/16 10:59:35;;;;;;;14.47;5.43;;;5.60;99.90;;;;;;6132245;23;20057;-85
2023/03/16 11:02:22;;;;;;;;;;;7.10;99.90;;;;;;6134901;23;20054;-84
2023/03/16 11:05:14;;;;;;;11.33;4.87;;;5.90;99.90;;;;;;6134320;23;19993;-82
2023/03/16 11:10:36;;;;;;;11.33;5.00;;;5.40;99.90;;;;;;6082277;23;20028;-85
2023/03/16 11:13:53;;;;;;;11.67;4.87;;;5.90;99.90;;;;;;6072840;23;20105;-86
2023/03/16 11:17:18;;;;;;;13.53;5.00;;;5.70;99.90;;;;;;6039838;23;20019;-86
2023/03/16 11:23:24;;;;;;;10.37;4.80;;;6.10;99.90;;;;;;5929182;24;20012;-87
2023/03/16 11:33:37;;;;;;;11.83;4.90;;;6.20;99.90;;;;;;5870585;24;20022;-86
2023/03/16 12:10:05;;;;;;;10.18;4.18;;;7.10;99.90;;;;;;6150729;23;20120;-89
2023/03/16 12:18:42;;;;;;;10.53;4.20;;;7.30;99.90;;;;;;6181605;23;20017;-89
2023/03/16 15:53:44;;;;;;;8.25;3.28;;;10.20;99.90;;;;;;6162294;23;20104;-92
2023/03/16 15:59:15;;;;;;;9.25;3.00;;;10.00;99.90;;;;;;6154330;23;20450;-93
2023/03/16 16:02:35;;;;;;;7.97;2.90;;;9.80;99.90;;;;;;6163118;23;20021;-94
2023/03/16 16:14:55;;;;;;;9.13;3.28;;;9.70;99.90;;;;;;6160293;23;20079;-90
2023/03/16 16:25:55;;;;;;;10.48;3.40;;;9.50;99.90;;;;;;6151714;23;20025;-95
2023/03/16 16:35:13;;;;;;;9.45;3.05;;;9.40;99.90;;;;;;6154630;23;20036;-93
2023/03/16 16:37:54;;;;;;;9.38;3.15;;;9.60;99.90;;;;;;6130970;23;20049;-92
2023/03/16 16:43:31;;;;;;;8.80;2.90;;;9.30;99.90;;;;;;6155570;23;20048;-94
2023/03/16 16:45:59;;;;;;;7.57;2.60;;;8.60;99.90;;;;;;6098624;23;20569;-94
2023/03/16 16:48:56;;;;;;;8.70;3.33;;;10.80;99.90;;;;;;6081876;23;20462;-94
2023/03/16 16:51:56;;;;;;;8.40;2.90;;;10.50;99.90;;;;;;6130504;23;20021;-93
2023/03/16 16:54:52;;;;;;;9.57;3.20;;;8.90;99.90;;;;;;6056195;23;20045;-92
2023/03/16 17:08:18;;;;;;;9.98;3.40;;;8.60;99.90;;;;;;6160402;23;20021;-92
2023/03/16 17:10:44;;;;;;;9.32;3.00;;;9.80;99.90;;;;;;6136230;23;20563;-92
2023/03/16 17:13:49;;;;;;;8.88;3.45;;;7.80;99.90;;;;;;6161671;23;20044;-92
2023/03/16 17:16:32;;;;;;;10.05;3.60;;;8.10;99.90;;;;;;6157559;23;20049;-91
2023/03/16 17:18:58;;;;;;;9.57;3.60;;;7.40;99.90;;;;;;6126776;23;20029;-92
2023/03/16 17:21:29;;;;;;;8.57;3.53;;;8.80;99.90;;;;;;6162452;23;20350;-93
2023/03/16 17:23:56;;;;;;;10.97;3.50;;;8.70;99.90;;;;;;6128402;23;20083;-91
2023/03/16 17:26:44;;;;;;;9.13;3.33;;;8.70;99.90;;;;;;6153042;23;20320;-92
2023/03/16 17:29:32;;;;;;;8.98;3.10;;;9.00;99.90;;;;;;6128872;23;20036;-93
2023/03/16 17:32:35;;;;;;;10.23;3.55;;;6.90;99.90;;;;;;6143127;23;20385;-89
2023/03/16 17:35:23;;;;;;;10.20;3.45;;;7.40;99.90;;;;;;6131916;23;20025;-88
2023/03/16 17:37:58;;;;;;;9.63;3.70;;;7.20;99.90;;;;;;6108965;23;20045;-87
2023/03/16 17:41:33;;;;;;;9.43;3.33;;;8.30;99.90;;;;;;6129232;23;20021;-88
2023/03/16 17:45:05;;;;;;;8.43;3.37;;;7.40;99.90;;;;;;6128335;23;20024;-87
2023/03/16 17:47:38;;;;;;;9.97;3.70;;;8.00;99.90;;;;;;6127543;23;20028;-86
2023/03/16 17:50:18;;;;;;;12.13;3.73;;;6.20;99.90;;;;;;6128713;23;20018;-85
2023/03/16 17:52:56;;;;;;;9.43;3.50;;;7.10;99.90;;;;;;6153385;23;20092;-85
2023/03/16 17:55:23;;;;;;;8.73;3.17;;;8.40;99.90;;;;;;6128680;23;20021;-85
2023/03/16 17:58:44;;;;;;;9.57;3.37;;;8.10;99.90;;;;;;6127518;23;20331;-83
2023/03/16 18:01:16;;;;;;;11.33;3.40;;;6.90;99.90;;;;;;6154579;23;20462;-83
2023/03/16 18:03:45;;;;;;;8.87;3.47;;;6.70;99.90;;;;;;6153890;23;20382;-83
2023/03/16 18:06:28;;;;;;;9.67;3.20;;;7.00;99.90;;;;;;6172517;23;20009;-82
2023/03/16 18:08:57;;;;;;;11.05;3.70;;;8.60;99.90;;;;;;6141705;23;20018;-83
2023/03/16 18:11:40;;;;;;;9.83;3.70;;;7.10;99.90;;;;;;6154990;23;20014;-83
2023/03/16 18:14:37;;;;;;;9.80;3.70;;;8.00;99.90;;;;;;6126412;23;20025;-81
2023/03/16 18:17:39;;;;;;;10.33;3.80;;;8.30;99.90;;;;;;6154255;23;20025;-82
2023/03/16 18:20:28;;;;;;;9.33;3.70;;;7.10;99.90;;;;;;6153064;23;20072;-82
2023/03/16 18:22:55;;;;;;;9.47;3.60;;;7.40;99.90;;;;;;6127582;23;20025;-82
2023/03/16 18:25:29;;;;;;;10.37;4.07;;;8.90;99.90;;;;;;6127630;23;20013;-83
2023/03/16 18:27:59;;;;;;;12.47;5.63;;;7.80;99.90;;;;;;6124716;23;20021;-82
2023/03/16 18:30:31;;;;;;;10.67;4.50;;;8.40;99.90;;;;;;6154349;23;20307;-82
2023/03/16 18:33:35;;;;;;;9.07;4.03;;;6.90;99.90;;;;;;6129241;23;20082;-82
2023/03/16 18:36:22;;;;;;;10.87;3.93;;;8.30;99.90;;;;;;6126215;23;20443;-84
2023/03/16 18:41:53;;;;;;;9.33;3.73;;;8.50;99.90;;;;;;6143681;23;20029;-82
2023/03/16 18:44:36;;;;;;;9.80;3.63;;;7.70;99.90;;;;;;6167401;23;20049;-83
2023/03/16 18:47:21;;;;;;;9.60;4.15;;;9.20;99.90;;;;;;6156549;23;20021;-83
2023/03/16 18:49:57;;;;;;;9.40;3.67;;;8.40;99.90;;;;;;6140484;23;20451;-82
2023/03/16 18:52:41;;;;;;;9.00;3.60;;;8.40;99.90;;;;;;6135808;23;20056;-83
2023/03/16 18:55:19;;;;;;;11.13;3.53;;;8.80;99.90;;;;;;6129006;23;20057;-82
2023/03/16 18:57:55;;;;;;;9.17;3.60;;;7.60;99.90;;;;;;6155677;23;20374;-83
2023/03/16 19:00:25;;;;;;;8.97;3.60;;;8.80;99.90;;;;;;6129204;23;20446;-82
2023/03/16 19:06:36;;;;;;;10.10;3.63;;;6.50;99.90;;;;;;6135797;23;20028;-82
2023/03/16 19:09:33;;;;;;;10.07;3.80;;;8.00;99.90;;;;;;6154042;23;20084;-82
2023/03/16 19:12:08;;;;;;;11.17;3.67;;;7.40;99.90;;;;;;6156205;23;20052;-82
2023/03/16 19:14:49;;;;;;;10.17;3.93;;;8.70;99.90;;;;;;6154989;23;20017;-83
2023/03/16 19:17:24;;;;;;;8.33;3.40;;;7.40;99.90;;;;;;6127736;23;20013;-83
2023/03/16 19:19:52;;;;;;;9.57;3.60;;;7.10;99.90;;;;;;6152523;23;20045;-86
2023/03/16 19:22:21;;;;;;;8.43;3.30;;;6.80;99.90;;;;;;6155141;23;20017;-83
2023/03/16 19:25:31;;;;;;;11.70;3.53;;;7.70;99.90;;;;;;6153414;23;20100;-82
2023/03/16 19:28:05;;;;;;;11.43;3.60;;;7.30;99.90;;;;;;6128290;23;20092;-82
2023/03/16 19:30:32;;;;;;;9.60;3.70;;;7.30;99.90;;;;;;6128487;23;20088;-83
2023/03/16 19:37:06;;;;;;;10.13;3.77;;;6.80;99.90;;;;;;6162764;23;20032;-82
2023/03/16 19:39:37;;;;;;;9.30;3.40;;;7.50;99.90;;;;;;6154051;23;20710;-83
2023/03/16 19:42:39;;;;;;;9.97;3.40;;;9.00;99.90;;;;;;6154919;23;20017;-82
2023/03/16 19:48:32;;;;;;;7.95;3.30;;;7.40;99.90;;;;;;6160392;23;20084;-83
2023/03/16 19:50:58;;;;;;;9.80;3.60;;;7.50;99.90;;;;;;6128866;23;20072;-82
2023/03/16 19:53:31;;;;;;;9.20;3.47;;;8.50;99.90;;;;;;6126593;23;20393;-82
2023/03/16 19:56:50;;;;;;;8.88;3.67;;;7.20;99.90;;;;;;6155247;23;20389;-82
2023/03/16 19:59:30;;;;;;;11.83;4.43;;;7.40;99.90;;;;;;6127939;23;20021;-83
2023/03/16 20:02:01;;;;;;;9.73;3.40;;;8.50;99.90;;;;;;6155143;23;20479;-83
2023/03/16 20:04:27;;;;;;;9.43;3.40;;;6.50;99.90;;;;;;6128346;23;20013;-83
2023/03/16 20:07:05;;;;;;;11.53;3.93;;;8.00;99.90;;;;;;6127162;23;20104;-83
2023/03/16 20:14:14;;;;;;;8.93;3.40;;;7.60;99.90;;;;;;6163197;23;20378;-84
2023/03/16 20:16:52;;;;;;;10.57;3.50;;;7.40;99.90;;;;;;6155230;23;20072;-82
2023/03/16 20:19:23;;;;;;;9.77;3.70;;;7.00;99.90;;;;;;6133093;23;20018;-83
2023/03/16 20:21:49;;;;;;;9.33;3.53;;;6.50;99.90;;;;;;6163291;23;20018;-82
2023/03/16 20:24:21;;;;;;;10.47;3.53;;;9.10;99.90;;;;;;6155931;23;20100;-83
2023/03/16 20:26:53;;;;;;;9.13;3.83;;;7.40;99.90;;;;;;6127396;23;20026;-82
2023/03/16 20:29:37;;;;;;;11.60;3.87;;;7.80;99.90;;;;;;6154205;23;20685;-82
2023/03/16 20:32:30;;;;;;;9.60;3.80;;;8.80;99.90;;;;;;6128479;23;20032;-82
2023/03/16 20:35:37;;;;;;;10.70;3.80;;;6.40;99.90;;;;;;6127726;23;20044;-83
2023/03/16 20:38:03;;;;;;;12.17;3.80;;;7.10;99.90;;;;;;6104324;23;20051;-83
2023/03/16 20:40:47;;;;;;;15.00;3.90;;;8.60;99.90;;;;;;6154411;23;20437;-83
2023/03/16 20:43:16;;;;;;;;;;;7.20;99.90;;;;;;6128657;23;20017;-82
2023/03/16 20:45:42;;;;;;;9.67;3.80;;;7.40;99.90;;;;;;6127786;23;19916;-82
2023/03/16 20:48:14;;;;;;;11.17;3.60;;;7.40;99.90;;;;;;6126804;23;20461;-83
2023/03/16 20:50:49;;;;;;;9.33;3.77;;;8.40;99.90;;;;;;6128042;23;20100;-83
2023/03/16 20:53:18;;;;;;;10.40;3.60;;;8.70;99.90;;;;;;6128664;23;20014;-82
2023/03/16 20:55:45;;;;;;;11.13;3.60;;;7.40;99.90;;;;;;6141763;23;20012;-82
2023/03/16 20:58:38;;;;;;;9.67;3.70;;;7.30;99.90;;;;;;6167220;23;20656;-82
2023/03/16 21:01:04;;;;;;;14.07;4.40;;;9.00;99.90;;;;;;6131841;23;20104;-82
2023/03/16 21:03:38;;;;;;;11.40;4.50;;;8.80;99.90;;;;;;6154083;23;20018;-82
2023/03/16 21:06:27;;;;;;;10.35;3.70;;;6.90;99.90;;;;;;6128018;23;20435;-82
2023/03/16 21:09:04;;;;;;;11.10;3.87;;;9.30;99.90;;;;;;6127133;23;20020;-82
2023/03/16 21:11:48;;;;;;;10.47;3.90;;;7.60;99.90;;;;;;6154270;23;20014;-82
2023/03/16 21:17:27;;;;;;;9.00;3.70;;;7.60;99.90;;;;;;5989185;23;19998;-83
2023/03/16 21:19:57;;;;;;;9.20;3.80;;;7.80;99.90;;;;;;6154419;23;20021;-82
2023/03/16 21:22:35;;;;;;;8.90;3.77;;;7.60;99.90;;;;;;6128351;23;20016;-82
2023/03/16 21:25:49;;;;;;;9.33;3.87;;;7.40;99.90;;;;;;6154881;23;20017;-82
2023/03/16 21:28:18;;;;;;;9.18;3.60;;;7.60;99.90;;;;;;6068264;23;20053;-83
2023/03/16 21:30:54;;;;;;;9.30;3.90;;;9.30;99.90;;;;;;6067539;23;20025;-81
2023/03/16 21:33:38;;;;;;;8.90;3.37;;;7.70;99.90;;;;;;6128015;23;20064;-82
2023/03/16 21:36:14;;;;;;;10.13;3.53;;;7.50;99.90;;;;;;6128201;23;20025;-81
2023/03/16 21:38:40;;;;;;;9.53;3.70;;;7.60;99.90;;;;;;6128330;23;20092;-82
2023/03/16 21:41:16;;;;;;;7.90;3.30;;;7.60;99.90;;;;;;6130971;23;20140;-81
2023/03/16 21:43:42;;;;;;;9.50;3.47;;;7.60;99.90;;;;;;6137127;23;20473;-82
2023/03/16 21:46:17;;;;;;;9.27;3.43;;;7.60;99.90;;;;;;6131387;23;20064;-82
2023/03/16 21:48:43;;;;;;;9.67;3.40;;;7.70;99.90;;;;;;6155738;23;20028;-82
2023/03/16 21:51:43;;;;;;;9.50;3.43;;;8.00;99.90;;;;;;6134863;23;20017;-82
2023/03/16 21:54:15;;;;;;;8.90;3.27;;;8.00;99.90;;;;;;6156622;23;20017;-82
2023/03/16 21:56:56;;;;;;;9.80;3.30;;;7.80;99.90;;;;;;6155890;23;20013;-82
2023/03/16 21:59:23;;;;;;;7.90;3.10;;;7.60;99.90;;;;;;6130371;23;20021;-82
2023/03/16 22:02:02;;;;;;;8.00;3.30;;;8.60;99.90;;;;;;6157237;23;20014;-82
2023/03/16 22:04:28;;;;;;;8.40;3.00;;;7.50;99.90;;;;;;6129361;23;20092;-81
2023/03/16 22:07:00;;;;;;;9.63;3.40;;;6.70;99.90;;;;;;6129514;23;20049;-82
2023/03/16 22:14:32;;;;;;;8.53;3.20;;;7.60;99.90;;;;;;6157986;23;20450;-83
2023/03/16 22:20:50;;;;;;;8.80;3.30;;;6.70;99.90;;;;;;6154254;23;20028;-84
2023/03/16 22:26:58;;;;;;;10.20;3.30;;;7.80;99.90;;;;;;6152943;23;20354;-83
2023/03/16 22:29:43;;;;;;;9.70;3.40;;;7.80;99.90;;;;;;6127313;23;20028;-83
2023/03/16 22:32:32;;;;;;;8.37;3.03;;;7.40;99.90;;;;;;6127074;23;20017;-83
2023/03/16 22:35:36;;;;;;;8.73;3.10;;;6.60;99.90;;;;;;6151344;23;20459;-83
2023/03/16 22:38:12;;;;;;;8.20;3.30;;;8.70;99.90;;;;;;6127210;23;20458;-83
2023/03/16 22:41:22;;;;;;;7.20;3.00;;;6.80;99.90;;;;;;6126278;23;20021;-83
2023/03/16 22:44:05;;;;;;;8.70;3.43;;;8.10;99.90;;;;;;6137545;23;20037;-83
2023/03/16 22:46:33;;;;;;;9.25;3.03;;;8.20;99.90;;;;;;6126780;23;20017;-83
2023/03/16 22:49:42;;;;;;;8.73;3.10;;;7.50;99.90;;;;;;6126244;23;20021;-83
2023/03/16 22:55:44;;;;;;;8.70;3.03;;;7.30;99.90;;;;;;6151299;23;20045;-83
2023/03/16 23:02:00;;;;;;;9.93;3.47;;;7.00;99.90;;;;;;6139430;23;20022;-84
2023/03/16 23:04:28;;;;;;;8.47;3.13;;;6.60;99.90;;;;;;6154388;23;20018;-84
2023/03/16 23:06:56;;;;;;;10.10;3.17;;;7.40;99.90;;;;;;6128589;23;20056;-84
2023/03/16 23:09:22;;;;;;;9.30;3.17;;;7.00;99.90;;;;;;6127979;23;20350;-83
2023/03/16 23:11:53;;;;;;;8.43;3.27;;;8.60;99.90;;;;;;6128695;23;20024;-83
2023/03/16 23:14:36;;;;;;;8.47;3.13;;;6.80;99.90;;;;;;6137942;23;20450;-84
2023/03/16 23:19:50;;;;;;;7.90;3.30;;;6.80;99.90;;;;;;6158638;23;20076;-83
2023/03/16 23:33:40;;;;;;;8.67;3.30;;;6.50;99.90;;;;;;6100070;23;20053;-83
2023/03/16 23:36:34;;;;;;;9.40;3.30;;;8.40;99.90;;;;;;6104062;23;20018;-83
2023/03/16 23:39:18;;;;;;;8.35;3.25;;;5.50;99.90;;;;;;6130342;23;20517;-83
2023/03/16 23:41:47;;;;;;;9.05;3.60;;;8.00;99.90;;;;;;6156840;23;20026;-83
2023/03/16 23:44:32;;;;;;;8.50;3.30;;;5.20;99.90;;;;;;6134340;23;20019;-84
2023/03/16 23:47:48;;;;;;;9.23;3.63;;;6.30;99.90;;;;;;6157501;23;20037;-83
2023/03/16 23:51:22;;;;;;;8.47;3.37;;;6.10;99.90;;;;;;6135485;23;20053;-84
2023/03/16 23:54:58;;;;;;;10.70;3.92;;;7.10;99.90;;;;;;6130562;23;20349;-83
2023/03/16 23:57:23;;;;;;;10.73;3.57;;;5.40;99.90;;;;;;6129261;23;20040;-83
